Time;durP1;ratioP1;P1;durP2;ratioP2;P2;SDS_P1;SDS_P2;PMS_P1;PMS_P2;Temp;Humidity;BMP_temperature;BMP_pressure;BME280_temperature;BME280_humidity;BME280_pressure;Samples;Min_cycle;Max_cycle;Signal;HPM_P1;HPM_P2
2024/03/22 00:00:33;;;;;;;12.68;11.07;;;15.20;96.70;;;;;;4913847;29;20082;-74
2024/03/22 00:03:02;;;;;;;16.02;11.27;;;15.10;96.70;;;;;;4915113;29;20058;-74
2024/03/22 00:05:31;;;;;;;12.13;10.88;;;15.00;96.70;;;;;;4927624;29;20036;-74
2024/03/22 00:07:58;;;;;;;12.07;10.43;;;15.00;96.70;;;;;;4899778;29;20075;-74
2024/03/22 00:10:25;;;;;;;12.50;10.65;;;14.90;96.70;;;;;;4914311;29;20098;-74
2024/03/22 00:12:52;;;;;;;11.73;10.40;;;14.80;96.70;;;;;;4898699;29;20062;-74
2024/03/22 00:15:22;;;;;;;13.25;11.20;;;14.60;96.70;;;;;;4901481;29;20054;-74
2024/03/22 00:17:49;;;;;;;11.55;10.35;;;14.50;96.70;;;;;;4932777;29;20073;-75
2024/03/22 00:20:17;;;;;;;11.02;9.88;;;14.40;96.70;;;;;;4933654;29;20090;-73
2024/03/22 00:22:45;;;;;;;14.57;10.52;;;14.40;96.70;;;;;;4934179;29;20102;-73
2024/03/22 00:25:13;;;;;;;11.35;10.07;;;14.50;96.70;;;;;;4934058;29;20174;-74
2024/03/22 00:27:43;;;;;;;12.52;10.82;;;14.60;96.70;;;;;;4918397;29;20059;-74
2024/03/22 00:30:11;;;;;;;13.98;10.70;;;14.60;96.70;;;;;;4913673;29;20054;-74
2024/03/22 00:32:40;;;;;;;13.07;10.40;;;14.60;96.70;;;;;;4902510;29;20086;-75
2024/03/22 00:35:08;;;;;;;12.95;10.80;;;14.70;96.70;;;;;;4919075;29;20133;-74
2024/03/22 00:37:35;;;;;;;14.50;10.27;;;14.60;96.70;;;;;;4934408;29;20047;-74
2024/03/22 00:40:04;;;;;;;11.57;10.30;;;14.60;96.70;;;;;;4917937;29;20047;-74
2024/03/22 00:42:31;;;;;;;12.90;10.63;;;14.60;96.70;;;;;;4916371;29;20054;-74
2024/03/22 00:44:58;;;;;;;11.77;10.57;;;14.70;96.70;;;;;;4926368;29;20047;-74
2024/03/22 00:47:26;;;;;;;13.35;10.55;;;14.60;96.70;;;;;;4927025;29;20045;-74
2024/03/22 00:49:58;;;;;;;11.60;10.48;;;14.60;96.70;;;;;;4928452;29;20397;-75
2024/03/22 00:52:25;;;;;;;12.57;10.63;;;14.60;96.70;;;;;;4932670;29;20047;-74
2024/03/22 00:54:53;;;;;;;12.52;11.23;;;14.60;96.70;;;;;;4916684;29;20058;-74
2024/03/22 00:57:20;;;;;;;12.68;11.15;;;14.60;96.70;;;;;;4947060;29;20050;-74
2024/03/22 00:59:48;;;;;;;12.50;10.68;;;14.60;96.70;;;;;;4929413;29;20082;-74
2024/03/22 01:02:15;;;;;;;12.73;10.68;;;14.60;96.70;;;;;;4902327;29;20129;-75
2024/03/22 01:04:43;;;;;;;12.32;10.48;;;14.60;96.70;;;;;;4931196;29;20066;-74
2024/03/22 01:07:16;;;;;;;14.32;10.15;;;14.60;96.70;;;;;;4944828;29;20047;-74
2024/03/22 01:09:44;;;;;;;11.73;10.43;;;14.70;96.70;;;;;;4948731;29;20420;-74
2024/03/22 01:12:17;;;;;;;12.15;10.18;;;14.60;96.70;;;;;;4902115;29;20097;-76
2024/03/22 01:14:48;;;;;;;10.63;9.52;;;14.60;96.70;;;;;;4938900;29;20059;-76
2024/03/22 01:17:15;;;;;;;12.13;9.75;;;14.60;96.70;;;;;;4945015;29;20144;-74
2024/03/22 01:19:43;;;;;;;11.30;9.63;;;14.50;96.70;;;;;;4931763;29;20166;-75
2024/03/22 01:22:10;;;;;;;10.75;9.40;;;14.50;96.70;;;;;;4919271;29;20093;-74
2024/03/22 01:24:40;;;;;;;11.13;9.20;;;14.40;96.70;;;;;;4930086;29;20114;-74
2024/03/22 01:27:07;;;;;;;11.05;9.85;;;14.40;96.70;;;;;;4901332;29;20047;-74
2024/03/22 01:29:35;;;;;;;10.95;9.95;;;14.30;96.70;;;;;;4929959;29;20055;-74
2024/03/22 01:32:04;;;;;;;11.27;9.98;;;14.30;96.70;;;;;;4910343;29;20047;-74
2024/03/22 01:34:31;;;;;;;11.45;10.00;;;14.30;96.70;;;;;;4942586;29;20078;-74
2024/03/22 01:36:59;;;;;;;12.38;9.30;;;14.30;96.70;;;;;;4932089;29;20070;-74
2024/03/22 01:39:28;;;;;;;10.70;8.82;;;14.30;96.70;;;;;;4931072;29;21292;-77
2024/03/22 01:41:58;;;;;;;10.77;9.68;;;14.40;96.70;;;;;;4930095;29;20061;-76
2024/03/22 01:44:28;;;;;;;10.90;9.23;;;14.40;96.70;;;;;;4943205;29;20066;-74
2024/03/22 01:47:01;;;;;;;11.27;9.68;;;14.50;96.70;;;;;;4931258;29;20071;-74
2024/03/22 01:49:29;;;;;;;11.35;9.07;;;14.50;96.70;;;;;;4902556;29;20066;-74
2024/03/22 01:51:57;;;;;;;11.60;9.27;;;14.60;96.70;;;;;;4916696;29;20156;-76
2024/03/22 01:54:24;;;;;;;10.50;9.32;;;14.60;96.70;;;;;;4931623;29;20043;-77
2024/03/22 01:56:52;;;;;;;11.13;9.23;;;14.50;96.70;;;;;;4939730;29;20493;-77
2024/03/22 01:59:22;;;;;;;9.82;8.88;;;14.50;96.70;;;;;;4931972;29;20043;-77
2024/03/22 02:01:50;;;;;;;11.00;8.93;;;14.50;96.70;;;;;;4914726;28;20051;-76
2024/03/22 02:04:18;;;;;;;10.40;8.98;;;14.50;96.70;;;;;;4907514;29;20086;-76
2024/03/22 02:06:45;;;;;;;9.20;8.30;;;14.40;96.70;;;;;;4923623;29;20072;-76
2024/03/22 02:09:13;;;;;;;11.18;8.23;;;14.50;96.70;;;;;;4946639;29;20082;-76
2024/03/22 02:11:40;;;;;;;10.77;8.38;;;14.50;96.70;;;;;;4946938;28;20501;-76
2024/03/22 02:14:08;;;;;;;10.07;8.40;;;14.40;96.70;;;;;;4924938;29;20568;-76
2024/03/22 02:16:40;;;;;;;12.18;8.48;;;14.40;96.70;;;;;;4932080;29;20081;-73
2024/03/22 02:19:07;;;;;;;8.38;7.13;;;14.40;96.70;;;;;;4932180;29;20047;-74
2024/03/22 02:21:34;;;;;;;9.57;8.30;;;14.40;96.70;;;;;;4913016;29;20058;-74
2024/03/22 02:24:07;;;;;;;8.95;7.95;;;14.40;96.70;;;;;;4930896;29;20043;-74
2024/03/22 02:26:34;;;;;;;13.85;8.98;;;14.40;96.70;;;;;;4912554;29;20101;-74
2024/03/22 02:29:02;;;;;;;11.95;8.93;;;14.20;96.70;;;;;;4943203;29;20130;-74
2024/03/22 02:31:29;;;;;;;10.40;9.23;;;14.20;96.70;;;;;;4930249;29;20098;-74
2024/03/22 02:33:58;;;;;;;10.73;9.63;;;14.20;96.70;;;;;;4897701;29;20043;-73
2024/03/22 02:36:25;;;;;;;11.98;8.93;;;14.10;96.70;;;;;;4920364;29;20098;-75
2024/03/22 02:38:52;;;;;;;10.57;9.13;;;14.10;96.70;;;;;;4925783;29;20051;-74
2024/03/22 02:41:21;;;;;;;9.70;8.65;;;14.00;96.70;;;;;;4908377;29;20047;-74
2024/03/22 02:43:49;;;;;;;9.18;8.27;;;14.00;96.70;;;;;;4935147;29;20139;-74
2024/03/22 02:46:18;;;;;;;11.10;7.45;;;13.90;96.70;;;;;;4942638;29;20059;-74
2024/03/22 02:48:46;;;;;;;7.63;6.82;;;13.90;96.70;;;;;;4923264;29;20051;-76
2024/03/22 02:51:14;;;;;;;8.38;7.55;;;13.80;96.70;;;;;;4922465;29;20116;-77
2024/03/22 02:53:41;;;;;;;7.72;6.93;;;13.70;96.70;;;;;;4912577;29;20099;-76
2024/03/22 02:56:09;;;;;;;9.55;6.93;;;13.70;96.70;;;;;;4929820;29;20090;-76
2024/03/22 02:58:42;;;;;;;8.85;7.20;;;13.50;96.70;;;;;;4905743;29;20118;-77
2024/03/22 03:01:10;;;;;;;8.43;6.97;;;13.50;96.70;;;;;;4942886;29;21288;-76
2024/03/22 03:03:37;;;;;;;9.93;7.82;;;13.50;96.70;;;;;;4929007;29;20066;-76
2024/03/22 03:06:05;;;;;;;8.63;7.72;;;13.50;96.70;;;;;;4943315;29;20094;-76
2024/03/22 03:08:33;;;;;;;12.15;9.38;;;13.50;96.70;;;;;;4926771;29;20133;-76
2024/03/22 03:11:01;;;;;;;12.07;9.43;;;13.40;96.70;;;;;;4914399;29;20535;-76
2024/03/22 03:13:32;;;;;;;12.30;9.38;;;13.40;96.70;;;;;;4909614;29;20667;-76
2024/03/22 03:16:02;;;;;;;17.77;10.50;;;13.60;96.70;;;;;;4941910;28;20042;-76
2024/03/22 03:18:30;;;;;;;11.05;9.40;;;13.60;96.70;;;;;;4914069;29;20066;-76
2024/03/22 03:20:57;;;;;;;15.82;11.38;;;13.70;96.70;;;;;;4943572;29;20069;-76
2024/03/22 03:23:24;;;;;;;18.20;12.25;;;13.80;96.70;;;;;;4942126;29;20554;-76
2024/03/22 03:25:51;;;;;;;20.38;12.65;;;13.80;96.70;;;;;;4921427;29;20047;-76
2024/03/22 03:28:21;;;;;;;21.63;12.60;;;13.90;96.70;;;;;;4942946;28;20055;-76
2024/03/22 03:30:49;;;;;;;28.38;14.80;;;13.90;96.70;;;;;;4925255;29;20167;-76
2024/03/22 03:33:17;;;;;;;32.95;16.92;;;14.00;96.70;;;;;;4937477;29;20047;-77
2024/03/22 03:35:46;;;;;;;36.67;17.25;;;14.00;96.70;;;;;;4930151;29;20046;-76
2024/03/22 03:38:13;;;;;;;33.78;18.20;;;14.00;96.70;;;;;;4928451;29;20043;-76
2024/03/22 03:40:41;;;;;;;39.08;18.73;;;14.00;96.70;;;;;;4930182;29;20051;-76
2024/03/22 03:43:09;;;;;;;34.53;16.77;;;13.90;96.70;;;;;;4917384;29;20573;-76
2024/03/22 03:45:37;;;;;;;35.05;17.85;;;13.90;96.70;;;;;;4926461;29;20059;-76
2024/03/22 03:48:06;;;;;;;40.58;17.10;;;13.90;96.70;;;;;;4939067;29;20054;-74
2024/03/22 03:50:34;;;;;;;29.80;16.40;;;14.00;96.70;;;;;;4923830;29;20441;-77
2024/03/22 03:53:03;;;;;;;50.80;16.83;;;14.00;96.70;;;;;;4914720;29;20643;-76
2024/03/22 03:55:31;;;;;;;38.35;15.90;;;13.90;96.70;;;;;;4915120;29;20087;-76
2024/03/22 03:57:58;;;;;;;54.65;14.70;;;13.80;96.70;;;;;;4926708;29;20058;-76
2024/03/22 04:00:25;;;;;;;43.40;14.73;;;13.70;96.70;;;;;;4925645;29;20051;-76
2024/03/22 04:02:53;;;;;;;28.52;13.82;;;13.60;96.70;;;;;;4940135;29;20048;-76
2024/03/22 04:05:20;;;;;;;25.00;14.00;;;13.50;96.70;;;;;;4938944;29;20043;-76
2024/03/22 04:07:50;;;;;;;37.47;13.70;;;13.50;96.70;;;;;;4909429;29;20183;-76
2024/03/22 04:10:17;;;;;;;34.35;13.88;;;13.50;96.70;;;;;;4912102;29;20757;-76
2024/03/22 04:12:46;;;;;;;23.77;12.43;;;13.60;96.70;;;;;;4929180;29;20139;-76
2024/03/22 04:15:14;;;;;;;24.85;13.60;;;13.60;96.70;;;;;;4941108;29;20048;-76
2024/03/22 04:17:41;;;;;;;27.33;13.32;;;13.60;96.70;;;;;;4926569;29;20047;-76
2024/03/22 04:20:11;;;;;;;26.33;13.93;;;13.70;96.70;;;;;;4916690;29;20047;-76
2024/03/22 04:22:38;;;;;;;18.63;13.13;;;13.60;96.70;;;;;;4922192;29;20283;-73
2024/03/22 04:25:09;;;;;;;23.73;14.32;;;13.70;96.70;;;;;;4929011;29;20063;-76
2024/03/22 04:27:39;;;;;;;22.48;14.48;;;13.60;96.70;;;;;;4920175;29;20770;-77
2024/03/22 04:30:07;;;;;;;23.02;14.98;;;13.60;96.70;;;;;;4942182;29;20058;-76
2024/03/22 04:32:35;;;;;;;25.80;14.13;;;13.70;96.70;;;;;;4924984;29;20473;-75
2024/03/22 04:35:04;;;;;;;28.25;14.25;;;13.70;96.70;;;;;;4895543;29;20128;-76
2024/03/22 04:37:33;;;;;;;23.08;13.95;;;13.60;96.70;;;;;;4926369;29;20054;-77
2024/03/22 04:40:00;;;;;;;18.88;14.02;;;13.60;96.70;;;;;;4913404;29;20051;-76
2024/03/22 04:42:31;;;;;;;19.45;14.30;;;13.60;96.70;;;;;;4936744;29;20051;-76
2024/03/22 04:44:59;;;;;;;19.23;14.40;;;13.60;96.70;;;;;;4896349;29;20046;-76
2024/03/22 04:47:26;;;;;;;23.13;15.13;;;13.60;96.70;;;;;;4914643;29;20055;-76
2024/03/22 04:49:55;;;;;;;19.13;13.93;;;13.60;96.70;;;;;;4944607;29;20059;-76
2024/03/22 04:52:24;;;;;;;27.27;15.13;;;13.60;96.70;;;;;;4929758;29;20409;-76
2024/03/22 04:54:53;;;;;;;22.08;14.80;;;13.60;96.70;;;;;;4926743;29;20036;-76
2024/03/22 04:57:20;;;;;;;20.15;13.40;;;13.60;96.70;;;;;;4910473;29;20047;-76
2024/03/22 04:59:50;;;;;;;20.40;13.18;;;13.60;96.70;;;;;;4935753;29;20296;-76
2024/03/22 05:02:18;;;;;;;18.05;12.77;;;13.50;96.70;;;;;;4910893;29;20051;-76
2024/03/22 05:04:45;;;;;;;24.85;13.60;;;13.60;96.70;;;;;;4944625;29;20559;-76
2024/03/22 05:07:13;;;;;;;17.27;12.88;;;13.60;96.70;;;;;;4912774;29;20073;-75
2024/03/22 05:09:42;;;;;;;16.45;12.82;;;13.50;96.70;;;;;;4930778;29;20452;-76
2024/03/22 05:12:09;;;;;;;15.50;12.13;;;13.50;96.70;;;;;;4938905;29;20063;-76
2024/03/22 05:14:37;;;;;;;24.15;13.82;;;13.40;96.70;;;;;;4926883;29;20535;-76
2024/03/22 05:17:06;;;;;;;17.48;12.90;;;13.50;96.70;;;;;;4913926;29;20043;-76
2024/03/22 05:19:36;;;;;;;20.02;13.27;;;13.50;96.70;;;;;;4931426;29;20197;-76
2024/03/22 05:22:05;;;;;;;18.08;13.02;;;13.60;96.70;;;;;;4930102;29;20051;-76
2024/03/22 05:24:33;;;;;;;14.82;11.35;;;13.50;96.70;;;;;;4926048;29;20048;-76
2024/03/22 05:27:03;;;;;;;19.98;11.80;;;13.60;96.70;;;;;;4941964;29;20048;-76
2024/03/22 05:29:32;;;;;;;18.50;12.15;;;13.60;96.70;;;;;;4925042;29;20067;-76
2024/03/22 05:32:00;;;;;;;18.95;11.40;;;13.50;96.70;;;;;;4946021;28;20055;-76
2024/03/22 05:34:29;;;;;;;16.83;11.50;;;13.50;96.70;;;;;;4931827;29;20055;-76
2024/03/22 05:36:59;;;;;;;17.35;10.35;;;13.50;96.70;;;;;;4932068;29;20098;-76
2024/03/22 05:39:26;;;;;;;14.77;9.77;;;13.60;96.70;;;;;;4916060;29;20480;-76
2024/03/22 05:41:54;;;;;;;15.32;10.02;;;13.60;96.70;;;;;;4933411;29;20051;-76
2024/03/22 05:44:22;;;;;;;13.25;8.98;;;13.60;96.70;;;;;;4932345;29;20062;-75
2024/03/22 05:46:50;;;;;;;15.35;9.60;;;13.70;96.70;;;;;;4943932;29;20050;-76
2024/03/22 05:49:17;;;;;;;13.88;9.30;;;13.70;96.70;;;;;;4943990;28;20130;-76
2024/03/22 05:51:47;;;;;;;16.40;9.10;;;13.80;96.70;;;;;;4944086;29;20040;-76
2024/03/22 05:54:15;;;;;;;14.75;9.02;;;13.70;96.70;;;;;;4927267;29;20043;-75
2024/03/22 05:56:43;;;;;;;15.43;8.45;;;13.50;96.70;;;;;;4916064;29;20723;-76
2024/03/22 05:59:10;;;;;;;13.25;8.95;;;13.50;96.70;;;;;;4915079;29;20077;-76
2024/03/22 06:01:38;;;;;;;12.45;8.40;;;13.50;96.70;;;;;;4926956;29;20162;-76
2024/03/22 06:04:05;;;;;;;16.40;7.93;;;13.50;96.70;;;;;;4911891;29;20043;-76
2024/03/22 06:06:35;;;;;;;24.85;8.27;;;13.60;96.70;;;;;;4943207;29;20540;-76
2024/03/22 06:09:11;;;;;;;12.00;8.10;;;13.50;96.70;;;;;;4924764;29;20052;-76
2024/03/22 06:11:43;;;;;;;15.85;7.75;;;13.50;96.70;;;;;;4932646;29;20127;-76
2024/03/22 06:14:11;;;;;;;11.15;7.85;;;13.40;96.70;;;;;;4931174;29;20146;-73
2024/03/22 06:16:43;;;;;;;14.52;7.75;;;13.40;96.70;;;;;;4930302;29;20051;-74
2024/03/22 06:19:11;;;;;;;16.75;7.45;;;13.40;96.70;;;;;;4915297;29;20047;-76
2024/03/22 06:21:38;;;;;;;21.98;7.63;;;13.40;96.70;;;;;;4931403;29;20682;-74
2024/03/22 06:24:09;;;;;;;14.27;7.30;;;13.30;96.70;;;;;;4930851;29;20035;-74
2024/03/22 06:26:36;;;;;;;12.60;7.15;;;13.30;96.70;;;;;;4931627;29;20420;-74
2024/03/22 06:29:03;;;;;;;15.18;7.07;;;13.40;96.70;;;;;;4944728;28;20485;-73
2024/03/22 06:31:31;;;;;;;9.43;6.82;;;13.50;96.70;;;;;;4944199;28;20626;-76
2024/03/22 06:34:02;;;;;;;23.67;7.32;;;13.60;96.70;;;;;;4899465;29;20125;-76
2024/03/22 06:36:30;;;;;;;10.73;6.25;;;13.50;96.70;;;;;;4930720;29;20059;-74
2024/03/22 06:38:58;;;;;;;9.73;6.65;;;13.40;96.70;;;;;;4926502;29;20047;-74
2024/03/22 06:41:28;;;;;;;39.85;7.32;;;13.40;96.70;;;;;;4910917;29;20047;-76
2024/03/22 06:43:56;;;;;;;17.15;6.80;;;13.30;96.70;;;;;;4926486;29;20051;-74
2024/03/22 06:46:23;;;;;;;11.00;7.22;;;13.30;96.70;;;;;;4894803;29;20537;-76
2024/03/22 06:48:51;;;;;;;11.52;6.97;;;13.40;96.70;;;;;;4914349;29;20051;-75
2024/03/22 06:51:18;;;;;;;17.27;7.47;;;13.40;96.70;;;;;;4926495;29;20046;-74
2024/03/22 06:53:47;;;;;;;20.70;8.48;;;13.50;96.70;;;;;;4914533;29;20089;-74
2024/03/22 06:56:15;;;;;;;22.35;7.90;;;13.50;96.70;;;;;;4928308;29;20051;-76
2024/03/22 06:58:45;;;;;;;20.10;8.25;;;13.50;96.70;;;;;;4913797;29;20043;-74
2024/03/22 07:01:12;;;;;;;16.80;8.23;;;13.50;96.70;;;;;;4913099;29;20475;-74
2024/03/22 07:03:45;;;;;;;15.18;8.40;;;13.50;96.70;;;;;;4914785;29;20047;-73
2024/03/22 07:06:14;;;;;;;11.32;8.65;;;13.50;96.70;;;;;;4909044;29;20154;-74
2024/03/22 07:08:45;;;;;;;16.05;8.77;;;13.60;96.70;;;;;;4912078;29;20067;-74
2024/03/22 07:11:14;;;;;;;12.68;9.02;;;13.60;96.70;;;;;;4927468;29;20090;-74
2024/03/22 07:13:44;;;;;;;13.20;9.63;;;13.60;96.70;;;;;;4925379;29;20051;-73
2024/03/22 07:16:10;;;;;;;13.57;9.65;;;13.70;96.70;;;;;;4915367;29;20047;-73
2024/03/22 07:18:38;;;;;;;15.38;8.88;;;13.80;96.70;;;;;;4909241;29;20047;-76
2024/03/22 07:21:06;;;;;;;21.35;9.57;;;13.80;96.70;;;;;;4939378;29;20070;-75
2024/03/22 07:23:34;;;;;;;12.73;8.52;;;13.80;96.70;;;;;;4942907;29;20134;-76
2024/03/22 07:26:04;;;;;;;9.60;8.07;;;13.90;96.70;;;;;;4929124;29;20924;-75
2024/03/22 07:28:32;;;;;;;11.02;8.73;;;13.90;96.70;;;;;;4924996;29;20051;-75
2024/03/22 07:31:01;;;;;;;11.70;8.93;;;14.00;96.70;;;;;;4946282;28;20158;-73
2024/03/22 07:33:28;;;;;;;16.13;9.55;;;14.10;96.70;;;;;;4913440;29;20182;-74
2024/03/22 07:35:56;;;;;;;19.80;9.23;;;14.10;96.70;;;;;;4913579;29;20528;-73
2024/03/22 07:38:23;;;;;;;18.75;8.95;;;14.00;96.70;;;;;;4915715;29;20039;-74
2024/03/22 07:40:50;;;;;;;23.75;9.45;;;14.00;96.70;;;;;;4912726;29;20524;-73
2024/03/22 07:43:17;;;;;;;15.88;9.45;;;13.90;96.70;;;;;;4930230;29;20516;-73
2024/03/22 07:45:45;;;;;;;11.15;8.40;;;13.90;96.70;;;;;;4913007;29;20539;-74
2024/03/22 07:48:15;;;;;;;14.38;9.40;;;14.00;96.70;;;;;;4915515;29;20757;-74
2024/03/22 07:50:42;;;;;;;12.57;9.30;;;14.20;96.70;;;;;;4915048;29;20051;-73
2024/03/22 07:53:10;;;;;;;12.65;9.88;;;14.20;96.70;;;;;;4930684;29;20054;-73
2024/03/22 07:55:37;;;;;;;12.45;10.25;;;14.30;96.70;;;;;;4915428;29;20051;-73
2024/03/22 07:58:05;;;;;;;17.90;10.35;;;14.40;96.70;;;;;;4912875;29;20058;-73
2024/03/22 08:00:33;;;;;;;14.70;10.80;;;14.50;96.70;;;;;;4914841;29;20051;-72
2024/03/22 08:03:02;;;;;;;20.05;14.13;;;14.50;96.70;;;;;;4913259;28;20058;-73
2024/03/22 08:05:31;;;;;;;23.25;16.83;;;14.50;96.70;;;;;;4930264;29;20055;-72
2024/03/22 08:07:58;;;;;;;21.13;16.55;;;14.50;96.70;;;;;;4930139;29;20106;-73
2024/03/22 08:10:25;;;;;;;24.20;16.58;;;14.50;96.70;;;;;;4929670;29;20093;-73
2024/03/22 08:12:54;;;;;;;28.63;19.10;;;14.70;96.70;;;;;;4930126;29;20051;-73
2024/03/22 08:15:21;;;;;;;27.38;19.50;;;14.60;96.70;;;;;;4930791;29;20081;-72
2024/03/22 08:17:49;;;;;;;35.13;22.73;;;14.70;96.70;;;;;;4926852;29;20107;-73
2024/03/22 08:20:17;;;;;;;34.17;23.40;;;14.90;96.70;;;;;;4945727;29;20109;-73
2024/03/22 08:22:47;;;;;;;34.30;23.95;;;15.00;96.70;;;;;;4930203;29;20101;-73
2024/03/22 08:25:18;;;;;;;27.98;21.48;;;15.00;96.70;;;;;;4899261;29;20043;-73
2024/03/22 08:27:46;;;;;;;28.05;19.45;;;15.10;96.70;;;;;;4911346;29;20143;-73
2024/03/22 08:30:14;;;;;;;21.85;17.48;;;15.20;96.70;;;;;;4927269;29;20058;-73
2024/03/22 08:32:42;;;;;;;22.75;17.88;;;15.30;96.70;;;;;;4899407;29;20055;-73
2024/03/22 08:35:12;;;;;;;20.13;14.98;;;15.30;96.70;;;;;;4929071;29;20052;-73
2024/03/22 08:37:41;;;;;;;20.25;15.65;;;15.40;96.70;;;;;;4948843;28;20114;-73
2024/03/22 08:40:13;;;;;;;17.52;14.57;;;15.50;96.70;;;;;;4949673;29;20075;-72
2024/03/22 08:42:42;;;;;;;17.05;13.05;;;15.70;96.70;;;;;;4949799;29;20637;-73
2024/03/22 08:45:09;;;;;;;16.88;13.57;;;15.70;96.70;;;;;;4914911;29;20158;-73
2024/03/22 08:47:39;;;;;;;20.15;15.40;;;15.70;96.70;;;;;;4943004;29;20047;-73
2024/03/22 08:50:09;;;;;;;21.05;16.30;;;15.70;96.70;;;;;;4923925;29;20425;-71
2024/03/22 08:52:38;;;;;;;20.08;14.65;;;15.60;96.70;;;;;;4932326;29;20044;-71
2024/03/22 08:55:06;;;;;;;18.73;14.30;;;15.50;96.70;;;;;;4917828;29;20146;-71
2024/03/22 08:57:37;;;;;;;18.55;15.05;;;15.50;96.70;;;;;;4948836;29;20051;-72
2024/03/22 09:00:08;;;;;;;19.13;15.73;;;15.40;96.70;;;;;;4936829;29;20055;-71
2024/03/22 09:02:37;;;;;;;20.27;15.02;;;15.50;96.70;;;;;;4932273;29;20488;-71
2024/03/22 09:05:06;;;;;;;18.80;14.63;;;15.50;96.70;;;;;;4917096;29;20509;-71
2024/03/22 09:07:34;;;;;;;17.42;13.82;;;15.60;96.70;;;;;;4933250;29;20743;-71
2024/03/22 09:10:02;;;;;;;20.27;15.18;;;15.70;96.70;;;;;;4917131;29;20163;-71
2024/03/22 09:12:29;;;;;;;17.23;13.98;;;15.70;96.70;;;;;;4948783;29;20421;-71
2024/03/22 09:14:58;;;;;;;16.13;13.80;;;15.80;96.70;;;;;;4928868;29;20067;-71
2024/03/22 09:17:25;;;;;;;21.83;15.90;;;15.90;96.70;;;;;;4947604;29;20133;-71
2024/03/22 09:19:52;;;;;;;18.15;14.70;;;15.90;96.70;;;;;;4911516;29;20089;-71
2024/03/22 09:22:23;;;;;;;21.67;17.13;;;15.90;96.70;;;;;;4931141;29;20615;-71
2024/03/22 09:24:51;;;;;;;24.33;17.95;;;16.00;96.70;;;;;;4933221;29;20097;-72
2024/03/22 09:27:19;;;;;;;24.17;18.63;;;16.10;96.70;;;;;;4930705;29;20520;-70
2024/03/22 09:29:49;;;;;;;30.80;22.45;;;16.10;96.70;;;;;;4931674;29;20067;-71
2024/03/22 09:32:19;;;;;;;31.35;21.25;;;16.20;96.70;;;;;;4934495;28;20089;-71
2024/03/22 09:34:49;;;;;;;31.42;21.90;;;16.20;96.70;;;;;;4892491;29;20505;-71
2024/03/22 09:37:17;;;;;;;27.60;20.98;;;16.20;96.70;;;;;;4899219;29;20055;-71
2024/03/22 09:39:44;;;;;;;32.33;21.92;;;16.20;96.70;;;;;;4932666;29;20047;-71
2024/03/22 09:42:17;;;;;;;30.20;20.48;;;16.30;96.70;;;;;;4949265;29;20059;-71
2024/03/22 09:44:48;;;;;;;26.85;20.02;;;16.40;96.70;;;;;;4932530;29;20517;-71
2024/03/22 09:47:20;;;;;;;27.13;20.27;;;16.60;96.70;;;;;;4925202;29;20117;-71
2024/03/22 09:49:49;;;;;;;23.17;18.73;;;16.70;96.70;;;;;;4930120;29;20137;-71
2024/03/22 09:52:20;;;;;;;20.33;15.98;;;16.80;96.70;;;;;;4936538;29;20385;-71
2024/03/22 09:54:49;;;;;;;22.00;17.48;;;16.90;96.70;;;;;;4916812;29;20059;-72
2024/03/22 09:57:18;;;;;;;19.83;15.65;;;17.10;96.70;;;;;;4920321;29;20062;-70
2024/03/22 09:59:46;;;;;;;18.52;14.63;;;17.30;96.70;;;;;;4933243;29;20085;-71
2024/03/22 10:02:14;;;;;;;19.67;14.65;;;17.50;96.70;;;;;;4925950;29;20086;-71
2024/03/22 10:04:46;;;;;;;20.10;15.00;;;17.60;96.70;;;;;;4915944;29;20051;-70
2024/03/22 10:07:13;;;;;;;21.77;14.90;;;17.70;96.70;;;;;;4931860;29;20140;-71
2024/03/22 10:09:45;;;;;;;17.60;13.85;;;17.80;96.70;;;;;;4901103;29;20463;-70
2024/03/22 10:12:13;;;;;;;16.05;12.95;;;17.90;96.70;;;;;;4931382;29;20777;-70
2024/03/22 10:14:44;;;;;;;17.25;12.35;;;17.90;96.70;;;;;;4916045;29;20090;-71
2024/03/22 10:17:12;;;;;;;14.20;10.68;;;17.90;96.70;;;;;;4925391;29;20142;-71
2024/03/22 10:19:40;;;;;;;14.05;9.60;;;18.10;96.70;;;;;;4915388;29;20059;-71
2024/03/22 10:22:09;;;;;;;11.05;9.30;;;18.20;96.70;;;;;;4931206;29;20054;-72
2024/03/22 10:24:36;;;;;;;10.20;8.77;;;18.50;96.70;;;;;;4916166;29;20039;-71
2024/03/22 10:27:04;;;;;;;9.88;8.35;;;18.60;96.70;;;;;;4947020;29;20641;-71
2024/03/22 10:29:33;;;;;;;11.25;8.02;;;18.60;96.70;;;;;;4915436;29;20110;-71
2024/03/22 10:32:01;;;;;;;8.40;7.07;;;18.60;96.70;;;;;;4911464;29;20048;-71
2024/03/22 10:34:29;;;;;;;9.02;6.85;;;18.70;96.70;;;;;;4930277;29;20047;-71
2024/03/22 10:37:00;;;;;;;7.25;6.35;;;18.90;96.70;;;;;;4915114;29;20129;-71
2024/03/22 10:39:32;;;;;;;7.65;6.82;;;19.00;96.70;;;;;;4925545;29;20066;-71
2024/03/22 10:42:00;;;;;;;7.28;5.93;;;19.10;96.70;;;;;;4931342;29;20058;-71
2024/03/22 10:44:29;;;;;;;6.40;5.07;;;19.30;96.70;;;;;;4912289;29;20051;-71
2024/03/22 10:47:01;;;;;;;6.10;5.20;;;19.60;96.70;;;;;;4915806;29;20055;-71
2024/03/22 10:49:30;;;;;;;7.75;4.75;;;19.80;96.70;;;;;;4931405;29;20560;-71
2024/03/22 10:52:02;;;;;;;6.45;4.20;;;19.90;96.70;;;;;;4915416;29;20297;-71
2024/03/22 10:54:34;;;;;;;4.57;3.60;;;20.20;96.70;;;;;;4915641;29;20053;-72
2024/03/22 10:57:05;;;;;;;4.10;2.40;;;20.20;96.70;;;;;;4892719;29;20138;-71
2024/03/22 10:59:34;;;;;;;3.47;2.50;;;20.30;96.70;;;;;;4930960;28;20129;-71
2024/03/22 11:02:04;;;;;;;2.53;2.28;;;20.60;96.70;;;;;;4923702;29;20051;-71
2024/03/22 11:04:34;;;;;;;2.58;2.33;;;20.80;96.70;;;;;;4916133;29;20130;-71
2024/03/22 11:07:04;;;;;;;3.28;2.40;;;20.80;96.70;;;;;;4915451;29;20083;-71
2024/03/22 11:09:32;;;;;;;2.72;1.90;;;20.90;96.70;;;;;;4915688;29;20071;-72
2024/03/22 11:12:00;;;;;;;3.10;2.22;;;20.90;96.70;;;;;;4931117;29;20109;-72
2024/03/22 11:14:28;;;;;;;3.33;1.70;;;20.90;96.70;;;;;;4931470;29;20675;-72
2024/03/22 11:16:56;;;;;;;1.98;1.35;;;21.10;96.70;;;;;;4931462;29;20057;-71
2024/03/22 11:19:24;;;;;;;3.13;1.52;;;21.10;96.70;;;;;;4930931;29;20058;-71
2024/03/22 11:21:55;;;;;;;2.90;1.70;;;21.20;96.70;;;;;;4931129;29;20051;-71
2024/03/22 11:24:23;;;;;;;1.55;1.30;;;21.40;96.70;;;;;;4930969;29;20061;-70
2024/03/22 11:26:56;;;;;;;1.77;1.08;;;21.70;96.70;;;;;;4904494;29;20047;-72
2024/03/22 11:29:24;;;;;;;3.22;1.48;;;21.80;96.70;;;;;;4915239;29;20576;-72
2024/03/22 11:31:52;;;;;;;2.78;1.30;;;22.00;96.70;;;;;;4931635;29;20051;-72
2024/03/22 11:34:19;;;;;;;1.70;1.23;;;22.00;96.70;;;;;;4924629;29;20521;-72
2024/03/22 11:36:50;;;;;;;1.65;1.23;;;22.20;96.70;;;;;;4916217;29;20115;-71
2024/03/22 11:39:20;;;;;;;1.40;1.20;;;22.30;96.70;;;;;;4932021;29;20075;-72
2024/03/22 11:41:50;;;;;;;1.30;1.20;;;22.40;96.70;;;;;;4914914;29;20051;-72
2024/03/22 11:44:19;;;;;;;2.38;1.10;;;22.50;96.70;;;;;;4914493;29;20136;-72
2024/03/22 11:46:50;;;;;;;1.63;1.33;;;22.70;96.70;;;;;;4946700;29;20058;-72
2024/03/22 11:49:18;;;;;;;1.38;1.10;;;22.70;96.70;;;;;;4914846;29;20127;-72
2024/03/22 11:51:46;;;;;;;3.42;1.40;;;22.60;96.70;;;;;;4930445;29;20051;-73
2024/03/22 11:54:14;;;;;;;1.88;1.60;;;22.80;96.70;;;;;;4931262;29;20071;-72
2024/03/22 11:56:42;;;;;;;3.40;1.73;;;23.00;96.70;;;;;;4914818;29;20051;-72
2024/03/22 11:59:13;;;;;;;1.83;1.35;;;23.10;96.70;;;;;;4898026;29;20513;-72
2024/03/22 12:01:43;;;;;;;4.20;1.50;;;23.10;96.70;;;;;;4930269;29;20078;-72
2024/03/22 12:04:14;;;;;;;3.75;1.85;;;23.10;96.70;;;;;;4930399;29;20047;-73
2024/03/22 12:06:44;;;;;;;2.13;1.63;;;23.20;96.70;;;;;;4930574;29;20046;-72
2024/03/22 12:09:14;;;;;;;1.48;1.33;;;23.10;96.70;;;;;;4914062;29;20047;-72
2024/03/22 12:11:41;;;;;;;2.25;1.50;;;23.00;96.70;;;;;;4915224;29;20106;-72
2024/03/22 12:14:08;;;;;;;1.75;1.42;;;23.00;96.70;;;;;;4934341;29;20059;-72
2024/03/22 12:16:37;;;;;;;1.42;1.33;;;23.20;96.70;;;;;;4918916;29;20070;-73
2024/03/22 12:19:06;;;;;;;1.30;1.20;;;23.40;96.70;;;;;;4918449;29;20078;-72
2024/03/22 12:21:37;;;;;;;2.00;1.15;;;23.60;96.70;;;;;;4934718;29;20207;-73
2024/03/22 12:24:05;;;;;;;1.27;1.08;;;23.60;96.70;;;;;;4905516;29;20106;-72
2024/03/22 12:26:32;;;;;;;2.22;1.30;;;23.70;96.70;;;;;;4926421;28;20117;-72
2024/03/22 12:29:00;;;;;;;1.88;1.30;;;23.80;96.70;;;;;;4934130;29;20066;-73
2024/03/22 12:31:27;;;;;;;1.15;0.95;;;23.80;96.70;;;;;;4918450;29;20417;-72
2024/03/22 12:33:56;;;;;;;3.20;1.30;;;23.90;96.70;;;;;;4918340;29;20058;-73
2024/03/22 12:36:25;;;;;;;2.03;1.30;;;24.00;96.70;;;;;;4915539;29;20051;-72
2024/03/22 12:38:53;;;;;;;1.95;1.10;;;23.90;96.70;;;;;;4935065;29;20051;-72
2024/03/22 12:41:21;;;;;;;2.40;1.40;;;23.90;96.70;;;;;;4918663;29;20143;-72